Gold Beach, OR

3:38 PM PDT on April 25, 2015 (GMT -0700)
MesoWest | | Change Station
CLOSE
Current Station
Personal Weather Station
Location: Gold Beach, OR
Elevation: 16 ft
Nearby Weather Stations

Elev 16 ft 42.41 °N, 124.42 °W | Updated 59 minutes ago

Partly Cloudy
Partly Cloudy
57 °F
Feels Like 57 °F
N
0
Wind Variable Wind from North
Gusts 0.0 mph

Today
High -- | Low -- °F
--% Chance of Precip.
Yesterday
High -- | Low -- °F
Precip. -- in
6:21 AM 8:10 PM
Waxing Crescent, 49% visible
Pressure 30.07 in
Visibility 9.0 miles
Clouds Few 5500 ft
Dew Point 46 °F
Humidity 67%
Rainfall in
Snow Depth Not available.
UV 8 out of 12
Pollen 5.20 out of 12
Air Quality Not available.
Flu Activity Sporadic
METAR KBOK 252156Z AUTO 30007KT 9SM FEW055 13/08 A3007 RMK AO2 T01330083 SLP183

More Conditions Fewer Conditions

Pressure 30.07 in
Visibility 9.0 miles
Clouds Few 5500 ft
Dew Point 46 °F
Humidity 67%
Rainfall in
Snow Depth Not available.
UV 8 out of 12
Pollen 5.20 out of 12
Air Quality Not available.
Flu Activity Sporadic
METAR KBOK 252156Z AUTO 30007KT 9SM FEW055 13/08 A3007 RMK AO2 T01330083 SLP183

More Conditions Fewer Conditions

10-Day Weather Forecast

Almanac

Astronomy

Apr. 25, 2015 Rise Set
Actual Time
Civil Twilight
Nautical Twilight
Astronomical Twilight
Moon
Length of Visible Light
Length of Day
Tomorrow will be .
, % of the Moon is Illuminated

Today's Extremes

State Highs State Lows

Community

WunderPhotos

Upload Photos

1,816,836 photos uploaded!

WunderBlogs® & News

Nearby

Air Quality

  Air Quality AQ Index Pollutant
Not available.

Snow Depth

Station Depth Elevation

Earthquake Activity

City Distance Mag. Time & Date
Minimum magnitude displayed is 2.5.

Coastal Water Temperatures

Place Temperature

Stations

Nearby Weather Stations

Station Location Temp. Windchill Dew Point Humidity Wind Precip. Elev Updated Type